Villa Las Mercedes, Puerto Rico
Current Conditions -  °F | °C
As of 3:53 AM on Wednesday 22 Oct 2014 (Local Time) from TJNR Reporting Station
Few Clouds Few Clouds  
Wind Chill: 78°   Ceiling: Unl
Heat Index: 81°   Visibility: 10mi
Dew Point: 73°   Wind: 3mph
Humidity: 84%   Direction: 80°E
Pressure: 29.95"   Gusts: NA
Location:  18.1853°N, 65.8667°W
Report Text: TJNR 220753Z AUTO 08003KT 10SM FEW024 26/23 A2995 RMK AO2 SLP143 T02560228
Loading
Personal Weather Stations






























Interactive Weather Map
Tropical Storm Tracking
New forecast layout! Learn more

10-Day Weather Forecast

Advertisements
Track Severe Weather on mobile